createdAt,value
2022-11-02T00:01:54.458Z,65.33
2022-11-02T00:04:21.033Z,65.61
2022-11-02T00:06:47.375Z,65.49
2022-11-02T00:09:14.083Z,65.06
2022-11-02T00:11:40.770Z,64.60
2022-11-02T00:14:07.575Z,64.42
2022-11-02T00:16:39.604Z,64.34
2022-11-02T00:19:07.813Z,64.09
2022-11-02T00:21:36.308Z,64.01
2022-11-02T00:24:05.429Z,63.78
2022-11-02T00:26:34.697Z,63.82
2022-11-02T00:29:02.358Z,63.73
2022-11-02T00:31:28.854Z,63.68
2022-11-02T00:33:55.574Z,63.64
2022-11-02T00:36:24.502Z,63.63
2022-11-02T00:38:51.045Z,63.70
2022-11-02T00:41:20.104Z,63.75
2022-11-02T00:43:46.551Z,63.87
2022-11-02T00:46:12.858Z,63.89
2022-11-02T00:48:39.261Z,63.99
2022-11-02T00:51:05.774Z,64.01
2022-11-02T00:53:32.130Z,63.98
2022-11-02T00:55:58.411Z,63.98
2022-11-02T00:58:24.747Z,64.16
2022-11-02T01:00:51.092Z,64.45
2022-11-02T01:03:17.416Z,64.44
2022-11-02T01:05:43.718Z,64.38
2022-11-02T01:08:10.097Z,64.29
2022-11-02T01:10:36.441Z,64.35
2022-11-02T01:13:02.897Z,64.46
2022-11-02T01:15:29.269Z,64.42
2022-11-02T01:17:55.705Z,64.44
2022-11-02T01:20:22.093Z,64.21
2022-11-02T01:22:48.361Z,64.23
2022-11-02T01:25:14.848Z,64.13
2022-11-02T01:27:41.228Z,64.07
2022-11-02T01:30:08.193Z,64.02
2022-11-02T01:32:34.549Z,63.99
2022-11-02T01:35:02.288Z,63.94
2022-11-02T01:37:28.742Z,63.87
2022-11-02T01:39:55.213Z,63.74
2022-11-02T01:42:25.689Z,63.56
2022-11-02T01:44:52.264Z,63.49
2022-11-02T01:47:31.482Z,63.49
2022-11-02T01:50:12.513Z,63.52
2022-11-02T01:52:39.322Z,63.65
2022-11-02T01:55:15.844Z,63.58
2022-11-02T01:57:49.269Z,63.76
2022-11-02T02:00:17.671Z,63.77
2022-11-02T02:03:00.377Z,63.37
2022-11-02T02:05:30.108Z,63.42
2022-11-02T02:07:56.913Z,63.32
2022-11-02T02:10:24.106Z,63.34
2022-11-02T02:12:50.905Z,63.32
2022-11-02T02:15:17.966Z,62.83
2022-11-02T02:17:58.849Z,62.49
2022-11-02T02:20:43.649Z,62.05
2022-11-02T02:23:57.741Z,61.93
2022-11-02T02:27:25.275Z,61.71
2022-11-02T02:30:09.202Z,61.60
2022-11-02T02:33:05.076Z,61.62
2022-11-02T02:35:43.062Z,61.96
2022-11-02T02:38:58.419Z,62.11
2022-11-02T02:41:43.745Z,62.41
2022-11-02T02:44:17.890Z,62.27
2022-11-02T02:47:21.615Z,61.98
2022-11-02T02:49:55.655Z,62.58
2022-11-02T02:52:26.059Z,62.90
2022-11-02T02:54:58.887Z,62.75
2022-11-02T02:57:30.958Z,62.53
2022-11-02T02:59:57.342Z,62.66
2022-11-02T03:02:33.605Z,62.75
2022-11-02T03:05:00.013Z,62.66
2022-11-02T03:07:34.300Z,62.44
2022-11-02T03:10:21.450Z,63.05
2022-11-02T03:13:09.620Z,63.19
2022-11-02T03:15:54.273Z,63.22
2022-11-02T03:18:33.584Z,62.77
2022-11-02T03:21:43.038Z,62.85
2022-11-02T03:24:18.485Z,62.84
2022-11-02T03:27:19.450Z,62.44
2022-11-02T03:29:58.964Z,62.14
2022-11-02T03:32:58.717Z,62.62
2022-11-02T03:35:40.593Z,63.15
2022-11-02T03:38:28.489Z,63.55
2022-11-02T03:40:56.510Z,64.05
2022-11-02T03:43:24.644Z,64.53
2022-11-02T03:45:56.783Z,64.65
2022-11-02T03:48:30.688Z,64.53
2022-11-02T03:51:02.343Z,64.67
2022-11-02T03:53:49.584Z,64.64
2022-11-02T03:56:31.483Z,64.87
2022-11-02T03:58:58.200Z,64.81
2022-11-02T04:01:28.403Z,65.27
2022-11-02T04:03:54.904Z,65.52
2022-11-02T04:06:23.018Z,65.57
2022-11-02T04:08:49.594Z,65.73
2022-11-02T04:11:34.842Z,65.85
2022-11-02T04:14:19.902Z,65.78
2022-11-02T04:16:46.267Z,65.84
2022-11-02T04:19:27.896Z,66.21
2022-11-02T04:22:15.001Z,66.21
2022-11-02T04:25:01.172Z,66.23
2022-11-02T04:27:28.199Z,66.07
2022-11-02T04:29:54.575Z,66.43
2022-11-02T04:32:39.778Z,66.45
2022-11-02T04:35:09.404Z,66.28
2022-11-02T04:38:00.767Z,66.07
2022-11-02T04:40:28.010Z,66.10
2022-11-02T04:42:54.331Z,65.71
2022-11-02T04:45:20.700Z,65.71
2022-11-02T04:47:47.092Z,65.81
2022-11-02T04:50:13.577Z,65.59
2022-11-02T04:52:39.866Z,65.57
2022-11-02T04:55:07.186Z,66.03
2022-11-02T04:57:33.605Z,66.21
2022-11-02T05:00:00.692Z,66.38
2022-11-02T05:02:27.101Z,66.78
2022-11-02T05:04:53.619Z,66.90
2022-11-02T05:07:20.139Z,66.78
2022-11-02T05:09:46.533Z,66.54
2022-11-02T05:12:12.957Z,66.66
2022-11-02T05:14:40.068Z,66.49
2022-11-02T05:17:06.506Z,66.31
2022-11-02T05:19:32.819Z,66.10
2022-11-02T05:21:59.305Z,65.97
2022-11-02T05:24:26.117Z,65.76
2022-11-02T05:26:54.177Z,65.76
2022-11-02T05:29:20.764Z,65.96
2022-11-02T05:31:47.183Z,65.99
2022-11-02T05:34:13.589Z,66.17
2022-11-02T05:36:40.029Z,66.48
2022-11-02T05:39:06.373Z,66.71
2022-11-02T05:41:32.673Z,66.83
2022-11-02T05:43:59.070Z,66.72
2022-11-02T05:46:25.896Z,66.84
2022-11-02T05:48:52.323Z,66.85
2022-11-02T05:51:18.628Z,66.68
2022-11-02T05:53:45.017Z,66.31
2022-11-02T05:56:14.177Z,65.96
2022-11-02T05:58:40.940Z,65.74
2022-11-02T06:01:10.498Z,65.72
2022-11-02T06:03:37.160Z,65.49
2022-11-02T06:06:07.319Z,65.42
2022-11-02T06:08:35.699Z,65.41
2022-11-02T06:11:13.589Z,65.45
2022-11-02T06:13:41.658Z,65.49
2022-11-02T06:16:11.252Z,65.63
2022-11-02T06:18:38.407Z,65.75
2022-11-02T06:21:05.412Z,65.72
2022-11-02T06:23:39.280Z,65.78
2022-11-02T06:26:06.229Z,65.68
2022-11-02T06:28:32.732Z,65.33
2022-11-02T06:30:59.080Z,65.14
2022-11-02T06:33:25.708Z,65.01
2022-11-02T06:35:54.001Z,64.77
2022-11-02T06:38:21.911Z,64.87
2022-11-02T06:41:06.091Z,65.16
2022-11-02T06:43:37.736Z,65.45
2022-11-02T06:46:05.573Z,65.61
2022-11-02T06:48:35.300Z,65.72
2022-11-02T06:51:04.686Z,65.90
2022-11-02T06:53:32.338Z,65.97
2022-11-02T06:55:59.621Z,66.11
2022-11-02T06:58:27.031Z,66.02
2022-11-02T07:01:00.323Z,65.96
2022-11-02T07:03:27.950Z,65.85
2022-11-02T07:05:54.516Z,65.64
2022-11-02T07:08:22.035Z,65.48
2022-11-02T07:10:49.029Z,65.26
2022-11-02T07:13:15.491Z,64.93
2022-11-02T07:15:42.228Z,64.81
2022-11-02T07:18:12.412Z,64.65
2022-11-02T07:20:38.937Z,64.44
2022-11-02T07:23:05.918Z,64.32
2022-11-02T07:25:33.107Z,64.34
2022-11-02T07:28:01.302Z,64.33
2022-11-02T07:30:33.707Z,64.42
2022-11-02T07:33:01.104Z,64.45
2022-11-02T07:35:27.809Z,64.40
2022-11-02T07:38:00.743Z,64.22
2022-11-02T07:40:29.526Z,64.22
2022-11-02T07:42:57.097Z,64.16
2022-11-02T07:45:24.810Z,64.03
2022-11-02T07:47:51.935Z,64.09
2022-11-02T07:50:24.041Z,63.78
2022-11-02T07:52:53.325Z,63.48
2022-11-02T07:55:24.907Z,63.22
2022-11-02T07:58:08.491Z,62.85
2022-11-02T08:00:38.335Z,62.58
2022-11-02T08:03:07.532Z,62.33
2022-11-02T08:05:38.582Z,62.08
2022-11-02T08:08:08.112Z,61.86
2022-11-02T08:10:38.987Z,61.57
2022-11-02T08:13:14.571Z,61.14
2022-11-02T08:15:41.716Z,60.98
2022-11-02T08:18:20.823Z,60.75
2022-11-02T08:20:48.092Z,59.88
2022-11-02T08:23:17.635Z,60.77
2022-11-02T08:25:46.793Z,62.75
2022-11-02T08:28:17.760Z,65.65
2022-11-02T08:30:44.808Z,63.68
2022-11-02T08:33:15.092Z,62.45
2022-11-02T08:35:44.390Z,61.85
2022-11-02T08:38:12.212Z,61.37
2022-11-02T08:40:39.317Z,61.06
2022-11-02T08:43:09.673Z,60.67
2022-11-02T08:46:12.619Z,59.33
2022-11-02T08:48:26.173Z,59.63
2022-11-02T08:50:52.783Z,61.21
2022-11-02T08:53:19.743Z,63.84
2022-11-02T08:55:46.238Z,64.38
2022-11-02T08:58:12.767Z,62.13
2022-11-02T09:00:39.504Z,59.98
2022-11-02T09:03:10.022Z,59.45
2022-11-02T09:05:43.013Z,60.84
2022-11-02T09:08:19.562Z,61.73
2022-11-02T09:10:50.898Z,64.28
2022-11-02T09:13:24.565Z,64.43
2022-11-02T09:15:54.676Z,62.77
2022-11-02T09:18:22.989Z,60.72
2022-11-02T09:20:50.821Z,59.37
2022-11-02T09:23:20.037Z,60.02
2022-11-02T09:25:47.286Z,60.99
2022-11-02T09:28:15.022Z,63.52
2022-11-02T09:30:42.316Z,63.48
2022-11-02T09:33:09.807Z,60.20
2022-11-02T09:35:43.636Z,59.34
2022-11-02T09:38:10.272Z,59.86
2022-11-02T09:40:44.384Z,60.95
2022-11-02T09:43:45.231Z,61.69
2022-11-02T09:46:29.021Z,62.11
2022-11-02T09:49:03.288Z,63.37
2022-11-02T09:51:39.653Z,62.30
2022-11-02T09:54:34.758Z,59.23
2022-11-02T09:57:14.411Z,59.18
2022-11-02T09:59:41.457Z,60.33
2022-11-02T10:02:30.806Z,61.24
2022-11-02T10:05:33.471Z,62.15
2022-11-02T10:08:40.204Z,63.13
2022-11-02T10:11:54.549Z,63.51
2022-11-02T10:14:36.155Z,62.81
2022-11-02T10:17:25.704Z,59.11
2022-11-02T10:19:59.253Z,58.25
2022-11-02T10:22:33.969Z,58.93
2022-11-02T10:25:14.526Z,59.54
2022-11-02T10:27:46.969Z,60.05
2022-11-02T10:30:17.940Z,60.32
2022-11-02T10:32:52.205Z,61.20
2022-11-02T10:36:04.877Z,61.46
2022-11-02T10:39:02.122Z,62.17
2022-11-02T10:41:48.481Z,62.26
2022-11-02T10:44:37.029Z,63.62
2022-11-02T10:47:25.465Z,64.15
2022-11-02T10:50:31.754Z,62.24
2022-11-02T10:53:27.304Z,58.98
2022-11-02T10:56:03.209Z,58.30
2022-11-02T10:58:35.925Z,58.80
2022-11-02T11:01:09.101Z,59.53
2022-11-02T11:03:59.756Z,60.13
2022-11-02T11:06:39.893Z,59.51
2022-11-02T11:09:17.809Z,60.60
2022-11-02T11:12:14.792Z,61.63
2022-11-02T11:20:34.594Z,62.31
2022-11-02T11:23:22.398Z,59.05
2022-11-02T11:26:30.798Z,58.58
2022-11-02T11:28:57.556Z,60.17
2022-11-02T11:31:25.431Z,61.39
2022-11-02T11:33:56.263Z,62.96
2022-11-02T11:36:35.117Z,62.98
2022-11-02T11:39:08.337Z,61.15
2022-11-02T11:41:40.754Z,60.25
2022-11-02T11:44:13.610Z,58.68
2022-11-02T11:46:47.958Z,59.39
2022-11-02T11:52:31.688Z,64.19
2022-11-02T11:55:24.177Z,64.40
2022-11-02T11:58:15.098Z,62.74
2022-11-02T12:00:42.310Z,61.86
2022-11-02T12:03:12.137Z,60.90
2022-11-02T12:06:16.318Z,59.30
2022-11-02T12:09:48.931Z,58.87
2022-11-02T12:12:40.020Z,61.93
2022-11-02T12:15:44.329Z,64.54
2022-11-02T12:18:32.851Z,63.06
2022-11-02T12:21:40.741Z,61.87
2022-11-02T12:24:43.780Z,60.49
2022-11-02T12:27:51.783Z,59.58
2022-11-02T12:30:24.303Z,59.40
2022-11-02T12:33:05.315Z,60.98
2022-11-02T12:36:08.363Z,63.47
2022-11-02T12:38:56.457Z,63.15
2022-11-02T12:41:50.636Z,62.17
2022-11-02T12:44:48.499Z,60.63
2022-11-02T12:47:54.030Z,60.21
2022-11-02T12:50:51.466Z,60.16
2022-11-02T12:53:50.259Z,59.85
2022-11-02T12:56:25.685Z,59.74
2022-11-02T12:58:53.323Z,58.53
2022-11-02T13:01:35.067Z,59.49
2022-11-02T13:04:19.759Z,60.87
2022-11-02T13:07:10.644Z,63.54
2022-11-02T13:09:54.643Z,63.30
2022-11-02T13:12:24.316Z,62.14
2022-11-02T13:14:56.047Z,60.89
2022-11-02T13:17:44.381Z,59.98
2022-11-02T13:20:22.326Z,58.57
2022-11-02T13:23:00.680Z,59.60
2022-11-02T13:25:46.309Z,60.85
2022-11-02T13:28:25.739Z,63.55
2022-11-02T13:30:54.908Z,63.43
2022-11-02T13:33:42.952Z,62.41
2022-11-02T13:36:11.413Z,60.42
2022-11-02T13:38:55.352Z,59.14
2022-11-02T13:42:19.634Z,59.38
2022-11-02T13:45:22.148Z,61.07
2022-11-02T13:48:15.640Z,63.81
2022-11-02T13:50:53.029Z,63.26
2022-11-02T13:53:34.024Z,62.42
2022-11-02T13:56:11.102Z,60.85
2022-11-02T13:58:47.520Z,59.04
2022-11-02T14:01:19.530Z,59.27
2022-11-02T14:04:08.460Z,60.47
2022-11-02T14:07:00.084Z,61.75
2022-11-02T14:09:44.077Z,64.14
2022-11-02T14:12:16.640Z,63.86
2022-11-02T14:15:11.883Z,62.24
2022-11-02T14:17:53.546Z,61.22
2022-11-02T14:20:34.357Z,59.30
2022-11-02T14:23:35.035Z,59.06
2022-11-02T14:26:01.597Z,61.07
2022-11-02T14:28:41.208Z,63.65
2022-11-02T14:31:37.761Z,64.10
2022-11-02T14:34:25.541Z,63.22
2022-11-02T14:37:17.855Z,61.91
2022-11-02T14:40:20.916Z,61.49
2022-11-02T14:43:10.664Z,60.74
2022-11-02T14:46:13.423Z,60.74
2022-11-02T14:49:01.604Z,60.52
2022-11-02T14:51:33.113Z,59.92
2022-11-02T14:54:07.035Z,60.16
2022-11-02T14:57:07.184Z,59.89
2022-11-02T14:59:44.078Z,59.82
2022-11-02T15:02:43.013Z,59.80
2022-11-02T15:05:30.382Z,59.78
2022-11-02T15:08:05.139Z,59.60
2022-11-02T15:10:31.674Z,58.17
2022-11-02T15:13:33.695Z,59.10
2022-11-02T15:16:00.178Z,60.83
2022-11-02T15:18:29.754Z,64.27
2022-11-02T15:21:11.767Z,65.55
2022-11-02T15:23:47.077Z,64.26
2022-11-02T15:26:39.200Z,63.43
2022-11-02T15:29:43.708Z,62.17
2022-11-02T15:32:22.555Z,61.53
2022-11-02T15:34:53.970Z,61.15
2022-11-02T15:37:25.036Z,60.76
2022-11-02T15:39:55.974Z,61.11
2022-11-02T15:43:04.183Z,61.11
2022-11-02T15:46:11.492Z,61.32
2022-11-02T15:49:05.761Z,61.73
2022-11-02T15:52:04.631Z,61.84
2022-11-02T15:55:20.958Z,62.17
2022-11-02T15:58:17.668Z,62.29
2022-11-02T16:01:11.174Z,62.04
2022-11-02T16:03:38.121Z,61.79
2022-11-02T16:06:06.133Z,61.52
2022-11-02T16:08:37.437Z,61.36
2022-11-02T16:11:18.296Z,61.24
2022-11-02T16:14:08.080Z,60.92
2022-11-02T16:16:44.799Z,60.80
2022-11-02T16:19:21.650Z,60.67
2022-11-02T16:21:49.276Z,60.31
2022-11-02T16:24:17.563Z,59.89
2022-11-02T16:26:45.903Z,59.76
2022-11-02T16:29:27.065Z,59.88
2022-11-02T16:31:53.632Z,59.70
2022-11-02T16:34:28.810Z,59.70
2022-11-02T16:36:56.281Z,59.60
2022-11-02T16:39:31.318Z,59.62
2022-11-02T16:42:01.181Z,59.74
2022-11-02T16:44:31.847Z,59.60
2022-11-02T16:47:09.128Z,59.69
2022-11-02T16:49:56.968Z,59.75
2022-11-02T16:52:35.648Z,59.50
2022-11-02T16:55:29.782Z,58.15
2022-11-02T16:58:01.276Z,59.63
2022-11-02T17:00:28.201Z,62.67
2022-11-02T17:02:55.375Z,63.99
2022-11-02T17:05:26.449Z,63.23
2022-11-02T17:08:05.625Z,62.14
2022-11-02T17:10:35.702Z,61.57
2022-11-02T17:13:08.609Z,61.22
2022-11-02T17:15:36.808Z,60.77
2022-11-02T17:18:09.638Z,60.61
2022-11-02T17:20:38.637Z,60.47
2022-11-02T17:23:28.190Z,60.40
2022-11-02T17:26:24.159Z,60.44
2022-11-02T17:28:55.087Z,60.43
2022-11-02T17:31:37.776Z,60.17
2022-11-02T17:34:14.754Z,60.25
2022-11-02T17:36:48.616Z,60.24
2022-11-02T17:39:18.972Z,59.98
2022-11-02T17:42:13.876Z,59.77
2022-11-02T17:44:41.062Z,58.06
2022-11-02T17:47:13.086Z,58.23
2022-11-02T17:49:39.731Z,61.53
2022-11-02T17:52:07.133Z,63.83
2022-11-02T17:54:33.591Z,63.32
2022-11-02T17:57:01.907Z,62.76
2022-11-02T17:59:28.710Z,62.09
2022-11-02T18:01:55.321Z,61.99
2022-11-02T18:04:21.902Z,61.39
2022-11-02T18:06:48.336Z,61.24
2022-11-02T18:09:19.287Z,61.38
2022-11-02T18:11:46.108Z,61.31
2022-11-02T18:14:16.128Z,61.48
2022-11-02T18:16:43.814Z,61.49
2022-11-02T18:19:10.325Z,61.23
2022-11-02T18:21:36.842Z,60.94
2022-11-02T18:24:03.828Z,60.71
2022-11-02T18:26:30.303Z,60.90
2022-11-02T18:28:57.067Z,60.87
2022-11-02T18:31:23.550Z,61.02
2022-11-02T18:33:52.286Z,61.11
2022-11-02T18:36:19.146Z,61.18
2022-11-02T18:38:45.777Z,61.43
2022-11-02T18:41:29.220Z,61.53
2022-11-02T18:44:11.974Z,61.56
2022-11-02T18:46:41.511Z,61.60
2022-11-02T18:49:08.069Z,61.67
2022-11-02T18:51:34.614Z,61.73
2022-11-02T18:54:04.677Z,61.75
2022-11-02T18:56:31.954Z,61.83
2022-11-02T18:58:58.524Z,61.91
2022-11-02T19:01:26.933Z,61.97
2022-11-02T19:03:59.365Z,62.15
2022-11-02T19:06:47.600Z,61.90
2022-11-02T19:09:19.252Z,61.74
2022-11-02T19:12:04.888Z,61.86
2022-11-02T19:14:43.828Z,62.10
2022-11-02T19:17:13.113Z,62.29
2022-11-02T19:19:40.583Z,62.28
2022-11-02T19:22:07.134Z,62.06
2022-11-02T19:24:33.644Z,61.94
2022-11-02T19:27:00.102Z,61.86
2022-11-02T19:29:26.576Z,62.14
2022-11-02T19:31:52.961Z,62.20
2022-11-02T19:34:19.517Z,61.95
2022-11-02T19:36:46.008Z,61.92
2022-11-02T19:39:12.437Z,61.60
2022-11-02T19:41:39.045Z,61.36
2022-11-02T19:44:06.096Z,61.39
2022-11-02T19:46:33.575Z,61.39
2022-11-02T19:49:00.312Z,61.21
2022-11-02T19:51:29.909Z,61.21
2022-11-02T19:54:01.713Z,61.11
2022-11-02T19:56:34.859Z,60.83
2022-11-02T19:59:03.799Z,60.63
2022-11-02T20:01:39.809Z,60.63
2022-11-02T20:04:06.538Z,60.17
2022-11-02T20:06:43.054Z,60.35
2022-11-02T20:09:16.294Z,60.65
2022-11-02T20:11:44.700Z,61.09
2022-11-02T20:14:13.895Z,60.68
2022-11-02T20:16:41.132Z,60.71
2022-11-02T20:19:08.886Z,60.68
2022-11-02T20:21:41.658Z,60.77
2022-11-02T20:24:13.433Z,60.63
2022-11-02T20:26:40.732Z,60.42
2022-11-02T20:29:10.867Z,60.47
2022-11-02T20:31:41.655Z,60.55
2022-11-02T20:34:08.714Z,60.60
2022-11-02T20:36:35.729Z,60.71
2022-11-02T20:39:04.247Z,60.70
2022-11-02T20:41:31.450Z,60.92
2022-11-02T20:43:59.207Z,60.98
2022-11-02T20:46:39.194Z,60.89
2022-11-02T20:49:20.402Z,61.28
2022-11-02T20:51:50.383Z,61.26
2022-11-02T20:54:18.681Z,60.95
2022-11-02T20:56:45.629Z,61.26
2022-11-02T20:59:12.102Z,61.32
2022-11-02T21:01:38.721Z,61.62
2022-11-02T21:04:05.636Z,61.31
2022-11-02T21:06:32.379Z,61.18
2022-11-02T21:08:59.951Z,61.34
2022-11-02T21:11:45.319Z,61.19
2022-11-02T21:14:11.820Z,61.28
2022-11-02T21:16:38.435Z,61.33
2022-11-02T21:19:04.865Z,61.28
2022-11-02T21:21:31.292Z,61.28
2022-11-02T21:23:57.790Z,61.42
2022-11-02T21:26:24.585Z,61.68
2022-11-02T21:28:51.076Z,61.77
2022-11-02T21:31:21.009Z,61.90
2022-11-02T21:33:49.530Z,62.21
2022-11-02T21:36:17.836Z,62.27
2022-11-02T21:38:45.228Z,61.94
2022-11-02T21:41:19.764Z,62.12
2022-11-02T21:43:46.302Z,62.21
2022-11-02T21:46:12.727Z,62.15
2022-11-02T21:48:39.230Z,62.18
2022-11-02T21:51:10.097Z,62.38
2022-11-02T21:53:40.743Z,62.75
2022-11-02T21:56:11.281Z,63.39
2022-11-02T21:58:44.575Z,62.90
2022-11-02T22:01:41.815Z,63.29
2022-11-02T22:04:09.832Z,63.17
2022-11-02T22:06:37.219Z,63.06
2022-11-02T22:09:06.801Z,63.11
2022-11-02T22:11:34.384Z,63.02
2022-11-02T22:14:01.881Z,63.07
2022-11-02T22:16:34.215Z,62.78
2022-11-02T22:19:10.159Z,62.53
2022-11-02T22:21:40.490Z,62.52
2022-11-02T22:24:07.647Z,62.64
2022-11-02T22:26:36.484Z,62.61
2022-11-02T22:29:04.466Z,62.45
2022-11-02T22:31:35.553Z,62.37
2022-11-02T22:34:05.854Z,62.47
2022-11-02T22:36:34.558Z,62.51
2022-11-02T22:39:04.136Z,62.38
2022-11-02T22:41:35.679Z,62.38
2022-11-02T22:44:06.556Z,62.37
2022-11-02T22:46:38.619Z,62.45
2022-11-02T22:49:07.732Z,62.43
2022-11-02T22:51:38.342Z,62.61
2022-11-02T22:54:08.797Z,63.12
2022-11-02T22:56:36.000Z,63.02
2022-11-02T22:59:04.309Z,62.85
2022-11-02T23:01:32.966Z,62.59
2022-11-02T23:04:00.756Z,62.49
2022-11-02T23:06:28.021Z,62.37
2022-11-02T23:08:57.726Z,62.51
2022-11-02T23:11:29.833Z,62.20
2022-11-02T23:14:12.341Z,62.13
2022-11-02T23:16:47.734Z,62.24
2022-11-02T23:19:27.315Z,62.15
2022-11-02T23:22:24.287Z,62.22
2022-11-02T23:25:16.640Z,62.54
2022-11-02T23:28:13.896Z,62.63
2022-11-02T23:31:00.105Z,62.44
2022-11-02T23:33:35.665Z,62.39
2022-11-02T23:36:10.508Z,62.03
2022-11-02T23:39:06.597Z,62.61
2022-11-02T23:41:36.265Z,63.42
2022-11-02T23:44:13.437Z,63.66
2022-11-02T23:46:42.478Z,63.35
2022-11-02T23:49:10.446Z,61.09
2022-11-02T23:51:55.836Z,60.06
2022-11-02T23:54:41.082Z,60.22
2022-11-02T23:57:07.489Z,59.98
2022-11-02T23:59:33.917Z,60.80
